createdAt,value
2023-01-31T00:03:44.021Z,42.73
2023-01-31T00:08:47.238Z,42.78
2023-01-31T00:13:51.368Z,42.78
2023-01-31T00:18:54.096Z,43.20
2023-01-31T00:23:57.245Z,42.92
2023-01-31T00:29:02.983Z,43.37
2023-01-31T00:34:05.764Z,43.47
2023-01-31T00:39:08.777Z,43.29
2023-01-31T00:44:12.992Z,43.65
2023-01-31T00:49:15.831Z,43.68
2023-01-31T00:54:18.650Z,43.56
2023-01-31T00:59:22.922Z,43.84
2023-01-31T01:04:25.702Z,44.00
2023-01-31T01:09:28.465Z,43.96
2023-01-31T01:14:33.037Z,43.86
2023-01-31T01:19:36.058Z,44.39
2023-01-31T01:24:42.783Z,44.17
2023-01-31T01:29:46.909Z,44.43
2023-01-31T01:34:49.713Z,44.12
2023-01-31T01:39:52.911Z,44.21
2023-01-31T01:44:57.881Z,44.39
2023-01-31T01:50:02.139Z,44.49
2023-01-31T01:55:07.380Z,44.55
2023-01-31T02:00:15.384Z,44.69
2023-01-31T02:05:19.943Z,44.77
2023-01-31T02:10:25.379Z,44.61
2023-01-31T02:15:29.605Z,44.79
2023-01-31T02:21:15.116Z,44.83
2023-01-31T02:26:36.065Z,44.80
2023-01-31T02:32:16.483Z,45.04
2023-01-31T02:37:24.358Z,45.12
2023-01-31T02:42:31.355Z,45.11
2023-01-31T02:47:45.757Z,45.15
2023-01-31T02:52:54.112Z,45.06
2023-01-31T02:57:58.126Z,45.10
2023-01-31T03:03:00.926Z,45.13
2023-01-31T03:08:06.344Z,45.29
2023-01-31T03:13:20.669Z,45.43
2023-01-31T03:18:24.672Z,45.34
2023-01-31T03:23:36.176Z,45.63
2023-01-31T03:28:42.116Z,45.58
2023-01-31T03:33:45.978Z,45.58
2023-01-31T03:38:52.652Z,45.92
2023-01-31T03:43:59.385Z,45.87
2023-01-31T03:49:02.652Z,45.91
2023-01-31T03:54:08.363Z,45.81
2023-01-31T03:59:13.517Z,46.01
2023-01-31T04:04:19.075Z,45.95
2023-01-31T04:09:23.492Z,46.07
2023-01-31T04:14:26.467Z,46.22
2023-01-31T04:19:29.355Z,46.17
2023-01-31T04:24:33.484Z,46.56
2023-01-31T04:29:36.658Z,46.18
2023-01-31T04:34:39.489Z,46.05
2023-01-31T04:39:43.791Z,45.65
2023-01-31T04:44:46.862Z,45.76
2023-01-31T04:49:49.690Z,45.65
2023-01-31T04:54:53.885Z,45.60
2023-01-31T04:59:56.718Z,45.80
2023-01-31T05:04:59.697Z,45.46
2023-01-31T05:10:03.876Z,45.61
2023-01-31T05:15:08.248Z,45.70
2023-01-31T05:20:12.413Z,45.51
2023-01-31T05:25:17.006Z,45.55
2023-01-31T05:30:19.955Z,45.45
2023-01-31T05:35:23.242Z,45.60
2023-01-31T05:40:27.589Z,45.45
2023-01-31T05:45:31.207Z,45.41
2023-01-31T05:50:34.160Z,45.40
2023-01-31T05:55:46.337Z,45.53
2023-01-31T06:00:49.294Z,45.39
2023-01-31T06:05:52.068Z,45.58
2023-01-31T06:10:56.396Z,45.35
2023-01-31T06:15:59.471Z,45.60
2023-01-31T06:21:02.254Z,45.57
2023-01-31T06:26:06.555Z,45.57
2023-01-31T06:31:09.659Z,45.36
2023-01-31T06:36:12.697Z,45.38
2023-01-31T06:41:16.912Z,45.34
2023-01-31T06:46:19.775Z,45.51
2023-01-31T06:51:22.781Z,45.46
2023-01-31T06:56:27.013Z,45.26
2023-01-31T07:01:30.332Z,45.50
2023-01-31T07:06:33.224Z,45.50
2023-01-31T07:11:38.115Z,45.22
2023-01-31T07:16:40.945Z,45.32
2023-01-31T07:21:44.394Z,45.22
2023-01-31T07:26:48.858Z,45.41
2023-01-31T07:31:51.706Z,45.58
2023-01-31T07:36:54.486Z,45.42
2023-01-31T07:41:58.670Z,45.40
2023-01-31T07:47:01.575Z,45.36
2023-01-31T07:52:04.495Z,45.19
2023-01-31T07:57:08.994Z,45.27
2023-01-31T08:02:30.677Z,45.03
2023-01-31T08:07:33.523Z,44.77
2023-01-31T08:12:37.717Z,43.43
2023-01-31T08:17:40.503Z,41.93
2023-01-31T08:22:43.420Z,40.71
2023-01-31T08:27:47.791Z,34.68
2023-01-31T08:32:50.581Z,34.76
2023-01-31T08:38:00.900Z,35.78
2023-01-31T08:43:11.270Z,37.72
2023-01-31T08:48:14.955Z,37.27
2023-01-31T08:53:17.710Z,37.58
2023-01-31T08:58:21.906Z,37.57
2023-01-31T09:03:24.831Z,37.56
2023-01-31T09:08:27.707Z,37.94
2023-01-31T09:13:32.385Z,38.23
2023-01-31T09:18:35.433Z,38.27
2023-01-31T09:23:41.722Z,38.72
2023-01-31T09:28:46.465Z,38.89
2023-01-31T09:33:49.353Z,39.02
2023-01-31T09:38:54.954Z,38.83
2023-01-31T09:44:00.112Z,39.29
2023-01-31T09:49:06.033Z,39.35
2023-01-31T09:54:14.871Z,39.96
2023-01-31T09:59:21.230Z,40.37
2023-01-31T10:04:31.006Z,40.56
2023-01-31T10:09:36.325Z,40.96
2023-01-31T10:14:42.326Z,41.03
2023-01-31T10:19:48.548Z,40.93
2023-01-31T10:24:54.368Z,40.85
2023-01-31T10:29:58.457Z,40.76
2023-01-31T10:35:03.006Z,40.66
2023-01-31T10:40:07.338Z,40.92
2023-01-31T10:45:15.067Z,40.87
2023-01-31T10:50:19.201Z,40.59
2023-01-31T10:55:36.215Z,40.51
2023-01-31T11:00:40.427Z,40.50
2023-01-31T11:05:47.275Z,40.74
2023-01-31T11:10:52.082Z,40.64
2023-01-31T11:15:56.635Z,40.76
2023-01-31T11:20:59.533Z,40.69
2023-01-31T11:26:02.339Z,40.54
2023-01-31T11:31:08.682Z,40.74
2023-01-31T11:36:12.966Z,40.61
2023-01-31T11:41:30.263Z,40.75
2023-01-31T11:46:35.260Z,40.64
2023-01-31T11:51:38.030Z,40.31
2023-01-31T11:56:40.937Z,40.36
2023-01-31T12:01:47.606Z,40.75
2023-01-31T12:06:58.548Z,40.81
2023-01-31T12:12:02.704Z,40.67
2023-01-31T12:17:07.138Z,40.59
2023-01-31T12:22:12.940Z,40.93
2023-01-31T12:27:22.084Z,40.95
2023-01-31T12:32:33.273Z,40.86
2023-01-31T12:37:40.826Z,40.98
2023-01-31T12:42:51.113Z,41.15
2023-01-31T12:48:20.505Z,41.25
2023-01-31T12:53:32.911Z,40.87
2023-01-31T12:58:41.749Z,40.95
2023-01-31T13:04:12.006Z,40.74
2023-01-31T13:09:18.848Z,40.82
2023-01-31T13:14:22.708Z,40.65
2023-01-31T13:19:27.859Z,40.88
2023-01-31T13:24:34.021Z,40.73
2023-01-31T13:29:39.645Z,40.98
2023-01-31T13:34:51.216Z,40.78
2023-01-31T13:39:55.612Z,41.05
2023-01-31T13:45:04.729Z,40.70
2023-01-31T13:50:12.563Z,41.00
2023-01-31T13:55:16.762Z,41.06
2023-01-31T14:00:32.953Z,40.85
2023-01-31T14:05:52.697Z,40.74
2023-01-31T14:10:55.575Z,41.27
2023-01-31T14:15:58.832Z,41.53
2023-01-31T14:21:32.321Z,42.11
2023-01-31T14:26:38.609Z,42.20
2023-01-31T14:31:41.487Z,42.45
2023-01-31T14:36:52.619Z,42.42
2023-01-31T14:42:15.633Z,42.75
2023-01-31T14:47:28.034Z,42.85
2023-01-31T14:52:41.379Z,42.83
2023-01-31T14:57:45.352Z,42.50
2023-01-31T15:02:50.226Z,42.78
2023-01-31T15:08:02.459Z,42.43
2023-01-31T15:13:49.770Z,42.58
2023-01-31T15:19:00.728Z,42.55
2023-01-31T15:24:05.419Z,42.73
2023-01-31T15:29:08.240Z,42.48
2023-01-31T15:34:15.450Z,42.44
2023-01-31T15:39:22.886Z,42.61
2023-01-31T15:44:26.586Z,42.47
2023-01-31T15:49:40.098Z,42.53
2023-01-31T15:54:54.453Z,42.27
2023-01-31T15:59:57.313Z,42.28
2023-01-31T16:05:00.293Z,42.04
2023-01-31T16:10:05.115Z,42.01
2023-01-31T16:15:08.881Z,41.65
2023-01-31T16:20:39.818Z,41.89
2023-01-31T16:25:43.983Z,41.59
2023-01-31T16:30:47.119Z,42.05
2023-01-31T16:36:12.785Z,41.89
2023-01-31T16:41:45.159Z,41.80
2023-01-31T16:46:48.679Z,41.69
2023-01-31T16:51:51.619Z,41.79
2023-01-31T16:57:09.383Z,41.50
2023-01-31T17:02:14.959Z,41.63
2023-01-31T17:07:19.215Z,41.40
2023-01-31T17:12:25.682Z,41.41
2023-01-31T17:17:29.313Z,41.25
2023-01-31T17:22:32.251Z,41.10
2023-01-31T17:27:36.354Z,40.74
2023-01-31T17:32:40.148Z,40.38
2023-01-31T17:37:42.911Z,40.21
2023-01-31T17:42:47.186Z,40.30
2023-01-31T17:47:50.174Z,39.97
2023-01-31T17:52:53.158Z,40.21
2023-01-31T17:57:57.373Z,40.18
2023-01-31T18:03:00.386Z,40.08
2023-01-31T18:08:05.150Z,40.32
2023-01-31T18:13:09.423Z,40.11
2023-01-31T18:18:12.179Z,40.28
2023-01-31T18:23:15.027Z,40.13
2023-01-31T18:28:19.399Z,40.17
2023-01-31T18:33:23.954Z,39.70
2023-01-31T18:38:27.480Z,39.74
2023-01-31T18:43:31.878Z,39.83
2023-01-31T18:48:37.450Z,39.72
2023-01-31T18:53:40.875Z,39.67
2023-01-31T18:58:45.554Z,39.59
2023-01-31T19:03:49.971Z,39.32
2023-01-31T19:08:52.918Z,39.43
2023-01-31T19:13:57.558Z,39.50
2023-01-31T19:19:00.493Z,39.60
2023-01-31T19:24:04.052Z,39.57
2023-01-31T19:29:09.807Z,39.78
2023-01-31T19:34:13.149Z,39.60
2023-01-31T19:39:15.985Z,39.38
2023-01-31T19:44:20.660Z,39.72
2023-01-31T19:49:23.595Z,39.57
2023-01-31T19:54:28.006Z,39.89
2023-01-31T19:59:33.465Z,39.84
2023-01-31T20:04:36.425Z,39.73
2023-01-31T20:09:39.291Z,39.52
2023-01-31T20:14:43.587Z,39.28
2023-01-31T20:19:46.589Z,39.58
2023-01-31T20:24:49.647Z,39.58
2023-01-31T20:29:54.025Z,39.76
2023-01-31T20:34:56.978Z,39.88
2023-01-31T20:40:00.525Z,40.22
2023-01-31T20:45:05.980Z,40.09
2023-01-31T20:50:10.308Z,40.20
2023-01-31T20:55:15.620Z,39.99
2023-01-31T21:00:22.082Z,39.81
2023-01-31T21:05:25.073Z,39.99
2023-01-31T21:10:28.817Z,40.26
2023-01-31T21:15:33.120Z,39.95
2023-01-31T21:20:36.238Z,39.88
2023-01-31T21:25:39.183Z,40.11
2023-01-31T21:30:44.707Z,40.15
2023-01-31T21:35:47.651Z,39.96
2023-01-31T21:41:10.675Z,40.01
2023-01-31T21:46:15.518Z,39.97
2023-01-31T21:51:19.012Z,39.80
2023-01-31T21:56:22.711Z,40.08
2023-01-31T22:01:27.692Z,40.05
2023-01-31T22:06:34.936Z,39.97
2023-01-31T22:11:38.156Z,40.68
2023-01-31T22:16:42.560Z,40.47
2023-01-31T22:21:45.383Z,40.73
2023-01-31T22:26:48.205Z,40.55
2023-01-31T22:31:54.790Z,40.63
2023-01-31T22:36:57.665Z,40.46
2023-01-31T22:42:00.557Z,40.66
2023-01-31T22:47:04.792Z,40.44
2023-01-31T22:52:07.540Z,40.75
2023-01-31T22:57:10.343Z,40.80
2023-01-31T23:02:14.704Z,40.64
2023-01-31T23:07:17.505Z,40.59
2023-01-31T23:12:20.325Z,40.65
2023-01-31T23:17:39.469Z,40.87
2023-01-31T23:22:42.617Z,40.81
2023-01-31T23:27:45.395Z,41.04
2023-01-31T23:32:49.740Z,41.01
2023-01-31T23:37:52.532Z,40.76
2023-01-31T23:42:55.402Z,41.13
2023-01-31T23:47:59.487Z,41.32
2023-01-31T23:53:02.252Z,41.42
2023-01-31T23:58:05.115Z,41.29
